Terminal Aerodrome Forecast
Issued by NWS

Home | Current Version | Previous Version | Text Only | Print | Product List | Glossary Off
Versions: 1 2 3 4 5 6 7 8 9 10 11 12 13 14 15 16 17

666
FTUS43 KMPX 281120
TAFAXN
TAF
KAXN 281120Z 2812/2912 06012KT P6SM SCT025 OVC040
      TEMPO 2813/2816 5SM -RASN BKN025 OVC040
     FM281700 06010KT P6SM BKN040 OVC080
     FM290200 07005KT P6SM SCT040 BKN080=

USA.gov is the U.S. government's official web portal to all federal, state and local government web resources and services.